Corning, Ohio
Current Conditions -  °F | °C
As of 6:53 AM on Tuesday 27 Jan 2015 (Local Time) from KZZV Reporting Station
Overcast Overcast  
Wind Chill:   Ceiling: 2600
Heat Index: 14°   Visibility: 7mi
Dew Point: 10°   Wind: 7mph
Humidity: 84%   Direction: 320°NW
Pressure: 29.95"   Gusts: NA
Location:  39.6°N, 82.09°W
Report Text: KZZV 271153Z AUTO 32006KT 7SM OVC026 M10/M12 A2995 RMK AO2 SLP155 60000 70006 T11001122 11078 21100 53014
Loading
Personal Weather Stations






























Interactive Weather Map New forecast layout! Learn more

10-Day Weather Forecast

Advertisements
Track Severe Weather on mobile